sensor_id;sensor_type;location;lat;lon;timestamp;P1;durP1;ratioP1;P2;durP2;ratioP2
6977;SDS011;3529;53.244;10.414;2022-09-12T00:00:26;1.10;;;1.10;;
6977;SDS011;3529;53.244;10.414;2022-09-12T00:02:52;1.40;;;1.40;;
6977;SDS011;3529;53.244;10.414;2022-09-12T00:05:18;1.30;;;1.30;;
6977;SDS011;3529;53.244;10.414;2022-09-12T00:07:44;1.35;;;1.35;;
6977;SDS011;3529;53.244;10.414;2022-09-12T00:10:10;1.40;;;1.40;;
6977;SDS011;3529;53.244;10.414;2022-09-12T00:12:35;1.30;;;1.30;;
6977;SDS011;3529;53.244;10.414;2022-09-12T00:15:01;1.40;;;1.40;;
6977;SDS011;3529;53.244;10.414;2022-09-12T00:17:27;1.58;;;1.48;;
6977;SDS011;3529;53.244;10.414;2022-09-12T00:19:52;1.52;;;1.50;;
6977;SDS011;3529;53.244;10.414;2022-09-12T00:22:19;1.27;;;1.27;;
6977;SDS011;3529;53.244;10.414;2022-09-12T00:24:44;1.20;;;1.20;;
6977;SDS011;3529;53.244;10.414;2022-09-12T00:27:10;1.40;;;1.40;;
6977;SDS011;3529;53.244;10.414;2022-09-12T00:29:35;1.15;;;1.15;;
6977;SDS011;3529;53.244;10.414;2022-09-12T00:32:01;1.40;;;1.40;;
6977;SDS011;3529;53.244;10.414;2022-09-12T00:34:27;1.42;;;1.42;;
6977;SDS011;3529;53.244;10.414;2022-09-12T00:36:52;1.60;;;1.55;;
6977;SDS011;3529;53.244;10.414;2022-09-12T00:39:18;1.40;;;1.40;;
6977;SDS011;3529;53.244;10.414;2022-09-12T00:41:43;1.60;;;1.50;;
6977;SDS011;3529;53.244;10.414;2022-09-12T00:49:26;1.52;;;1.48;;
6977;SDS011;3529;53.244;10.414;2022-09-12T00:51:54;1.35;;;1.30;;
6977;SDS011;3529;53.244;10.414;2022-09-12T00:54:28;1.55;;;1.45;;
6977;SDS011;3529;53.244;10.414;2022-09-12T00:56:58;1.58;;;1.48;;
6977;SDS011;3529;53.244;10.414;2022-09-12T00:59:28;1.27;;;1.27;;
6977;SDS011;3529;53.244;10.414;2022-09-12T01:01:58;1.40;;;1.40;;
6977;SDS011;3529;53.244;10.414;2022-09-12T01:04:24;1.67;;;1.58;;
6977;SDS011;3529;53.244;10.414;2022-09-12T01:06:51;1.45;;;1.35;;
6977;SDS011;3529;53.244;10.414;2022-09-12T01:09:20;1.58;;;1.33;;
6977;SDS011;3529;53.244;10.414;2022-09-12T01:11:47;1.48;;;1.48;;
6977;SDS011;3529;53.244;10.414;2022-09-12T01:14:15;1.40;;;1.40;;
6977;SDS011;3529;53.244;10.414;2022-09-12T01:16:41;1.27;;;1.27;;
6977;SDS011;3529;53.244;10.414;2022-09-12T01:22:16;1.53;;;1.50;;
6977;SDS011;3529;53.244;10.414;2022-09-12T01:31:00;1.65;;;1.58;;
6977;SDS011;3529;53.244;10.414;2022-09-12T01:38:49;1.40;;;1.40;;
6977;SDS011;3529;53.244;10.414;2022-09-12T01:41:24;1.63;;;1.58;;
6977;SDS011;3529;53.244;10.414;2022-09-12T01:49:14;1.43;;;1.43;;
6977;SDS011;3529;53.244;10.414;2022-09-12T01:51:50;1.30;;;1.30;;
6977;SDS011;3529;53.244;10.414;2022-09-12T01:54:24;1.27;;;1.27;;
6977;SDS011;3529;53.244;10.414;2022-09-12T01:56:55;1.50;;;1.50;;
6977;SDS011;3529;53.244;10.414;2022-09-12T01:59:34;1.60;;;1.60;;
6977;SDS011;3529;53.244;10.414;2022-09-12T02:02:05;1.40;;;1.40;;
6977;SDS011;3529;53.244;10.414;2022-09-12T02:04:42;1.30;;;1.30;;
6977;SDS011;3529;53.244;10.414;2022-09-12T02:10:14;1.50;;;1.50;;
6977;SDS011;3529;53.244;10.414;2022-09-12T02:15:39;1.87;;;1.77;;
6977;SDS011;3529;53.244;10.414;2022-09-12T02:18:11;1.53;;;1.53;;
6977;SDS011;3529;53.244;10.414;2022-09-12T02:20:40;1.30;;;1.30;;
6977;SDS011;3529;53.244;10.414;2022-09-12T02:23:08;1.73;;;1.70;;
6977;SDS011;3529;53.244;10.414;2022-09-12T02:25:38;1.33;;;1.33;;
6977;SDS011;3529;53.244;10.414;2022-09-12T02:28:14;1.40;;;1.40;;
6977;SDS011;3529;53.244;10.414;2022-09-12T02:30:53;1.53;;;1.53;;
6977;SDS011;3529;53.244;10.414;2022-09-12T02:33:23;1.30;;;1.30;;
6977;SDS011;3529;53.244;10.414;2022-09-12T02:38:56;1.40;;;1.40;;
6977;SDS011;3529;53.244;10.414;2022-09-12T02:41:22;1.30;;;1.30;;
6977;SDS011;3529;53.244;10.414;2022-09-12T02:43:49;1.50;;;1.50;;
6977;SDS011;3529;53.244;10.414;2022-09-12T02:46:19;1.30;;;1.30;;
6977;SDS011;3529;53.244;10.414;2022-09-12T02:49:00;2.03;;;1.93;;
6977;SDS011;3529;53.244;10.414;2022-09-12T02:51:26;1.30;;;1.30;;
6977;SDS011;3529;53.244;10.414;2022-09-12T02:53:51;1.30;;;1.30;;
6977;SDS011;3529;53.244;10.414;2022-09-12T02:56:20;1.40;;;1.40;;
6977;SDS011;3529;53.244;10.414;2022-09-12T02:58:52;1.30;;;1.30;;
6977;SDS011;3529;53.244;10.414;2022-09-12T03:18:26;1.40;;;1.40;;
6977;SDS011;3529;53.244;10.414;2022-09-12T03:21:17;1.23;;;1.23;;
6977;SDS011;3529;53.244;10.414;2022-09-12T03:26:40;1.20;;;1.20;;
6977;SDS011;3529;53.244;10.414;2022-09-12T03:29:12;1.47;;;1.47;;
6977;SDS011;3529;53.244;10.414;2022-09-12T03:31:52;1.20;;;1.20;;
6977;SDS011;3529;53.244;10.414;2022-09-12T03:34:20;1.70;;;1.60;;
6977;SDS011;3529;53.244;10.414;2022-09-12T03:36:47;1.50;;;1.50;;
6977;SDS011;3529;53.244;10.414;2022-09-12T03:39:13;1.47;;;1.47;;
6977;SDS011;3529;53.244;10.414;2022-09-12T03:41:39;1.50;;;1.50;;
6977;SDS011;3529;53.244;10.414;2022-09-12T03:44:05;1.50;;;1.50;;
6977;SDS011;3529;53.244;10.414;2022-09-12T03:46:31;1.30;;;1.30;;
6977;SDS011;3529;53.244;10.414;2022-09-12T03:48:56;1.57;;;1.57;;
6977;SDS011;3529;53.244;10.414;2022-09-12T03:51:22;1.70;;;1.60;;
6977;SDS011;3529;53.244;10.414;2022-09-12T03:53:47;1.80;;;1.70;;
6977;SDS011;3529;53.244;10.414;2022-09-12T03:56:13;1.40;;;1.40;;
6977;SDS011;3529;53.244;10.414;2022-09-12T03:58:39;1.50;;;1.50;;
6977;SDS011;3529;53.244;10.414;2022-09-12T04:01:08;1.87;;;1.77;;
6977;SDS011;3529;53.244;10.414;2022-09-12T04:03:37;1.40;;;1.40;;
6977;SDS011;3529;53.244;10.414;2022-09-12T04:06:04;1.40;;;1.40;;
6977;SDS011;3529;53.244;10.414;2022-09-12T04:08:30;1.50;;;1.50;;
6977;SDS011;3529;53.244;10.414;2022-09-12T04:11:03;1.50;;;1.50;;
6977;SDS011;3529;53.244;10.414;2022-09-12T04:13:30;1.40;;;1.40;;
6977;SDS011;3529;53.244;10.414;2022-09-12T04:15:56;2.73;;;1.50;;
6977;SDS011;3529;53.244;10.414;2022-09-12T04:18:23;1.53;;;1.53;;
6977;SDS011;3529;53.244;10.414;2022-09-12T04:20:49;1.33;;;1.33;;
6977;SDS011;3529;53.244;10.414;2022-09-12T04:23:14;1.90;;;1.80;;
6977;SDS011;3529;53.244;10.414;2022-09-12T04:25:40;1.43;;;1.43;;
6977;SDS011;3529;53.244;10.414;2022-09-12T04:28:05;1.57;;;1.57;;
6977;SDS011;3529;53.244;10.414;2022-09-12T04:30:32;1.50;;;1.50;;
6977;SDS011;3529;53.244;10.414;2022-09-12T04:32:58;1.50;;;1.50;;
6977;SDS011;3529;53.244;10.414;2022-09-12T04:35:24;1.30;;;1.30;;
6977;SDS011;3529;53.244;10.414;2022-09-12T04:37:50;1.77;;;1.77;;
6977;SDS011;3529;53.244;10.414;2022-09-12T04:40:15;1.53;;;1.43;;
6977;SDS011;3529;53.244;10.414;2022-09-12T04:42:41;1.33;;;1.33;;
6977;SDS011;3529;53.244;10.414;2022-09-12T04:45:07;1.97;;;1.87;;
6977;SDS011;3529;53.244;10.414;2022-09-12T04:47:33;1.60;;;1.60;;
6977;SDS011;3529;53.244;10.414;2022-09-12T04:49:59;1.40;;;1.40;;
6977;SDS011;3529;53.244;10.414;2022-09-12T04:52:25;1.43;;;1.43;;
6977;SDS011;3529;53.244;10.414;2022-09-12T04:54:50;1.50;;;1.50;;
6977;SDS011;3529;53.244;10.414;2022-09-12T04:57:17;1.73;;;1.63;;
6977;SDS011;3529;53.244;10.414;2022-09-12T04:59:42;1.27;;;1.27;;
6977;SDS011;3529;53.244;10.414;2022-09-12T05:02:08;1.40;;;1.40;;
6977;SDS011;3529;53.244;10.414;2022-09-12T05:04:34;1.43;;;1.43;;
6977;SDS011;3529;53.244;10.414;2022-09-12T05:07:00;1.40;;;1.40;;
6977;SDS011;3529;53.244;10.414;2022-09-12T05:09:25;1.50;;;1.50;;
6977;SDS011;3529;53.244;10.414;2022-09-12T05:11:51;1.70;;;1.70;;
6977;SDS011;3529;53.244;10.414;2022-09-12T05:14:17;1.60;;;1.60;;
6977;SDS011;3529;53.244;10.414;2022-09-12T05:16:43;1.47;;;1.47;;
6977;SDS011;3529;53.244;10.414;2022-09-12T05:19:10;3.63;;;1.70;;
6977;SDS011;3529;53.244;10.414;2022-09-12T05:21:36;2.07;;;1.97;;
6977;SDS011;3529;53.244;10.414;2022-09-12T05:24:02;1.37;;;1.37;;
6977;SDS011;3529;53.244;10.414;2022-09-12T05:26:30;1.60;;;1.60;;
6977;SDS011;3529;53.244;10.414;2022-09-12T05:28:56;1.57;;;1.57;;
6977;SDS011;3529;53.244;10.414;2022-09-12T05:31:22;1.40;;;1.40;;
6977;SDS011;3529;53.244;10.414;2022-09-12T05:33:50;1.30;;;1.30;;
6977;SDS011;3529;53.244;10.414;2022-09-12T05:36:18;1.63;;;1.63;;
6977;SDS011;3529;53.244;10.414;2022-09-12T05:38:54;1.57;;;1.57;;
6977;SDS011;3529;53.244;10.414;2022-09-12T05:41:24;1.50;;;1.50;;
6977;SDS011;3529;53.244;10.414;2022-09-12T05:43:55;1.37;;;1.37;;
6977;SDS011;3529;53.244;10.414;2022-09-12T05:46:24;1.33;;;1.33;;
6977;SDS011;3529;53.244;10.414;2022-09-12T05:48:51;2.07;;;1.97;;
6977;SDS011;3529;53.244;10.414;2022-09-12T05:51:22;1.80;;;1.70;;
6977;SDS011;3529;53.244;10.414;2022-09-12T05:53:57;1.40;;;1.40;;
6977;SDS011;3529;53.244;10.414;2022-09-12T05:56:25;1.70;;;1.60;;
6977;SDS011;3529;53.244;10.414;2022-09-12T05:59:02;1.90;;;1.80;;
6977;SDS011;3529;53.244;10.414;2022-09-12T06:01:31;4.10;;;1.80;;
6977;SDS011;3529;53.244;10.414;2022-09-12T06:03:57;1.53;;;1.53;;
6977;SDS011;3529;53.244;10.414;2022-09-12T06:06:25;1.50;;;1.50;;
6977;SDS011;3529;53.244;10.414;2022-09-12T06:08:53;1.30;;;1.30;;
6977;SDS011;3529;53.244;10.414;2022-09-12T06:11:22;2.00;;;1.90;;
6977;SDS011;3529;53.244;10.414;2022-09-12T06:13:50;1.60;;;1.50;;
6977;SDS011;3529;53.244;10.414;2022-09-12T06:16:20;1.50;;;1.50;;
6977;SDS011;3529;53.244;10.414;2022-09-12T06:18:50;1.67;;;1.67;;
6977;SDS011;3529;53.244;10.414;2022-09-12T06:21:17;1.67;;;1.57;;
6977;SDS011;3529;53.244;10.414;2022-09-12T06:23:44;1.80;;;1.70;;
6977;SDS011;3529;53.244;10.414;2022-09-12T06:26:11;1.43;;;1.43;;
6977;SDS011;3529;53.244;10.414;2022-09-12T06:28:38;1.53;;;1.53;;
6977;SDS011;3529;53.244;10.414;2022-09-12T06:31:12;1.57;;;1.50;;
6977;SDS011;3529;53.244;10.414;2022-09-12T06:33:40;3.33;;;1.67;;
6977;SDS011;3529;53.244;10.414;2022-09-12T06:36:09;1.40;;;1.40;;
6977;SDS011;3529;53.244;10.414;2022-09-12T06:38:37;1.37;;;1.37;;
6977;SDS011;3529;53.244;10.414;2022-09-12T06:41:04;1.83;;;1.65;;
6977;SDS011;3529;53.244;10.414;2022-09-12T06:43:31;1.50;;;1.50;;
6977;SDS011;3529;53.244;10.414;2022-09-12T06:45:58;1.58;;;1.58;;
6977;SDS011;3529;53.244;10.414;2022-09-12T06:48:23;2.05;;;1.58;;
6977;SDS011;3529;53.244;10.414;2022-09-12T06:50:56;1.50;;;1.50;;
6977;SDS011;3529;53.244;10.414;2022-09-12T06:53:33;3.42;;;1.50;;
6977;SDS011;3529;53.244;10.414;2022-09-12T06:56:22;1.50;;;1.50;;
6977;SDS011;3529;53.244;10.414;2022-09-12T06:58:49;1.20;;;1.20;;
6977;SDS011;3529;53.244;10.414;2022-09-12T07:01:16;1.50;;;1.50;;
6977;SDS011;3529;53.244;10.414;2022-09-12T07:03:47;1.40;;;1.40;;
6977;SDS011;3529;53.244;10.414;2022-09-12T07:06:15;1.65;;;1.65;;
6977;SDS011;3529;53.244;10.414;2022-09-12T07:08:42;1.30;;;1.30;;
6977;SDS011;3529;53.244;10.414;2022-09-12T07:13:38;1.30;;;1.30;;
6977;SDS011;3529;53.244;10.414;2022-09-12T07:16:05;1.67;;;1.58;;
6977;SDS011;3529;53.244;10.414;2022-09-12T07:18:32;1.42;;;1.42;;
6977;SDS011;3529;53.244;10.414;2022-09-12T07:21:02;1.38;;;1.38;;
6977;SDS011;3529;53.244;10.414;2022-09-12T07:23:29;1.58;;;1.58;;
6977;SDS011;3529;53.244;10.414;2022-09-12T07:25:56;1.50;;;1.42;;
6977;SDS011;3529;53.244;10.414;2022-09-12T07:28:26;1.45;;;1.45;;
6977;SDS011;3529;53.244;10.414;2022-09-12T07:30:54;1.40;;;1.40;;
6977;SDS011;3529;53.244;10.414;2022-09-12T07:33:21;1.50;;;1.40;;
6977;SDS011;3529;53.244;10.414;2022-09-12T07:35:48;2.45;;;1.65;;
6977;SDS011;3529;53.244;10.414;2022-09-12T07:38:14;1.80;;;1.70;;
6977;SDS011;3529;53.244;10.414;2022-09-12T07:40:40;1.60;;;1.50;;
6977;SDS011;3529;53.244;10.414;2022-09-12T07:43:06;1.52;;;1.52;;
6977;SDS011;3529;53.244;10.414;2022-09-12T07:45:31;1.40;;;1.40;;
6977;SDS011;3529;53.244;10.414;2022-09-12T07:47:57;1.65;;;1.63;;
6977;SDS011;3529;53.244;10.414;2022-09-12T07:50:23;2.25;;;1.42;;
6977;SDS011;3529;53.244;10.414;2022-09-12T07:52:48;1.40;;;1.40;;
6977;SDS011;3529;53.244;10.414;2022-09-12T07:55:14;1.20;;;1.20;;
6977;SDS011;3529;53.244;10.414;2022-09-12T07:57:40;1.60;;;1.50;;
6977;SDS011;3529;53.244;10.414;2022-09-12T08:00:06;1.45;;;1.45;;
6977;SDS011;3529;53.244;10.414;2022-09-12T08:02:33;1.80;;;1.70;;
6977;SDS011;3529;53.244;10.414;2022-09-12T08:04:58;2.15;;;1.60;;
6977;SDS011;3529;53.244;10.414;2022-09-12T08:07:24;1.20;;;1.20;;
6977;SDS011;3529;53.244;10.414;2022-09-12T08:09:49;1.70;;;1.60;;
6977;SDS011;3529;53.244;10.414;2022-09-12T08:12:15;1.38;;;1.38;;
6977;SDS011;3529;53.244;10.414;2022-09-12T08:14:42;1.40;;;1.40;;
6977;SDS011;3529;53.244;10.414;2022-09-12T08:17:07;1.30;;;1.30;;
6977;SDS011;3529;53.244;10.414;2022-09-12T08:19:33;1.80;;;1.70;;
6977;SDS011;3529;53.244;10.414;2022-09-12T08:21:59;1.80;;;1.70;;
6977;SDS011;3529;53.244;10.414;2022-09-12T08:24:24;1.20;;;1.20;;
6977;SDS011;3529;53.244;10.414;2022-09-12T08:26:50;1.33;;;1.33;;
6977;SDS011;3529;53.244;10.414;2022-09-12T08:29:16;1.83;;;1.73;;
6977;SDS011;3529;53.244;10.414;2022-09-12T08:31:41;1.48;;;1.35;;
6977;SDS011;3529;53.244;10.414;2022-09-12T08:34:07;1.42;;;1.42;;
6977;SDS011;3529;53.244;10.414;2022-09-12T08:36:33;1.42;;;1.42;;
6977;SDS011;3529;53.244;10.414;2022-09-12T08:39:00;1.33;;;1.33;;
6977;SDS011;3529;53.244;10.414;2022-09-12T08:41:35;1.80;;;1.70;;
6977;SDS011;3529;53.244;10.414;2022-09-12T08:50:02;1.65;;;1.55;;
6977;SDS011;3529;53.244;10.414;2022-09-12T08:55:00;1.33;;;1.33;;
6977;SDS011;3529;53.244;10.414;2022-09-12T08:57:26;1.20;;;1.20;;
6977;SDS011;3529;53.244;10.414;2022-09-12T08:59:52;1.20;;;1.20;;
6977;SDS011;3529;53.244;10.414;2022-09-12T09:08:10;1.00;;;1.00;;
6977;SDS011;3529;53.244;10.414;2022-09-12T09:11:25;1.23;;;1.23;;
6977;SDS011;3529;53.244;10.414;2022-09-12T09:14:34;1.25;;;1.23;;
6977;SDS011;3529;53.244;10.414;2022-09-12T09:17:38;1.10;;;1.10;;
6977;SDS011;3529;53.244;10.414;2022-09-12T09:22:55;1.02;;;1.02;;
6977;SDS011;3529;53.244;10.414;2022-09-12T09:28:49;1.40;;;1.40;;
6977;SDS011;3529;53.244;10.414;2022-09-12T09:31:20;1.52;;;1.42;;
6977;SDS011;3529;53.244;10.414;2022-09-12T09:33:49;1.20;;;1.20;;
6977;SDS011;3529;53.244;10.414;2022-09-12T09:36:20;1.20;;;1.20;;
6977;SDS011;3529;53.244;10.414;2022-09-12T09:39:08;0.85;;;0.85;;
6977;SDS011;3529;53.244;10.414;2022-09-12T09:44:42;1.38;;;1.27;;
6977;SDS011;3529;53.244;10.414;2022-09-12T09:47:11;1.10;;;1.10;;
6977;SDS011;3529;53.244;10.414;2022-09-12T09:49:37;1.08;;;1.08;;
6977;SDS011;3529;53.244;10.414;2022-09-12T09:52:04;1.17;;;1.10;;
6977;SDS011;3529;53.244;10.414;2022-09-12T09:54:36;1.08;;;1.08;;
6977;SDS011;3529;53.244;10.414;2022-09-12T10:00:20;1.10;;;1.10;;
6977;SDS011;3529;53.244;10.414;2022-09-12T10:05:29;0.90;;;0.90;;
6977;SDS011;3529;53.244;10.414;2022-09-12T10:07:58;1.10;;;1.10;;
6977;SDS011;3529;53.244;10.414;2022-09-12T10:10:24;1.02;;;1.02;;
6977;SDS011;3529;53.244;10.414;2022-09-12T10:12:50;0.70;;;0.70;;
6977;SDS011;3529;53.244;10.414;2022-09-12T10:15:29;0.80;;;0.80;;
6977;SDS011;3529;53.244;10.414;2022-09-12T10:17:57;0.70;;;0.70;;
6977;SDS011;3529;53.244;10.414;2022-09-12T10:20:32;0.70;;;0.70;;
6977;SDS011;3529;53.244;10.414;2022-09-12T10:23:01;0.65;;;0.65;;
6977;SDS011;3529;53.244;10.414;2022-09-12T10:25:54;0.70;;;0.70;;
6977;SDS011;3529;53.244;10.414;2022-09-12T10:28:34;0.80;;;0.80;;
6977;SDS011;3529;53.244;10.414;2022-09-12T10:31:03;0.70;;;0.70;;
6977;SDS011;3529;53.244;10.414;2022-09-12T10:33:29;0.90;;;0.90;;
6977;SDS011;3529;53.244;10.414;2022-09-12T10:36:24;0.90;;;0.90;;
6977;SDS011;3529;53.244;10.414;2022-09-12T10:38:59;0.90;;;0.90;;
6977;SDS011;3529;53.244;10.414;2022-09-12T10:41:26;0.73;;;0.73;;
6977;SDS011;3529;53.244;10.414;2022-09-12T10:44:07;0.80;;;0.80;;
6977;SDS011;3529;53.244;10.414;2022-09-12T10:46:38;1.00;;;1.00;;
6977;SDS011;3529;53.244;10.414;2022-09-12T10:49:18;0.80;;;0.80;;
6977;SDS011;3529;53.244;10.414;2022-09-12T10:51:50;0.80;;;0.80;;
6977;SDS011;3529;53.244;10.414;2022-09-12T10:54:18;0.80;;;0.80;;
6977;SDS011;3529;53.244;10.414;2022-09-12T11:00:07;0.80;;;0.80;;
6977;SDS011;3529;53.244;10.414;2022-09-12T11:02:58;0.85;;;0.85;;
6977;SDS011;3529;53.244;10.414;2022-09-12T11:05:36;1.05;;;1.05;;
6977;SDS011;3529;53.244;10.414;2022-09-12T11:08:30;0.80;;;0.80;;
6977;SDS011;3529;53.244;10.414;2022-09-12T11:11:05;0.98;;;0.98;;
6977;SDS011;3529;53.244;10.414;2022-09-12T11:19:12;0.82;;;0.82;;
6977;SDS011;3529;53.244;10.414;2022-09-12T11:24:29;0.80;;;0.80;;
6977;SDS011;3529;53.244;10.414;2022-09-12T11:27:21;1.23;;;1.00;;
6977;SDS011;3529;53.244;10.414;2022-09-12T11:30:02;0.90;;;0.90;;
6977;SDS011;3529;53.244;10.414;2022-09-12T11:46:49;0.88;;;0.88;;
6977;SDS011;3529;53.244;10.414;2022-09-12T11:48:57;0.80;;;0.80;;
6977;SDS011;3529;53.244;10.414;2022-09-12T11:51:25;0.90;;;0.90;;
6977;SDS011;3529;53.244;10.414;2022-09-12T11:56:44;0.88;;;0.88;;
6977;SDS011;3529;53.244;10.414;2022-09-12T11:59:29;0.77;;;0.77;;
6977;SDS011;3529;53.244;10.414;2022-09-12T12:02:03;0.60;;;0.60;;
6977;SDS011;3529;53.244;10.414;2022-09-12T12:04:38;0.88;;;0.88;;
6977;SDS011;3529;53.244;10.414;2022-09-12T12:07:14;0.70;;;0.70;;
6977;SDS011;3529;53.244;10.414;2022-09-12T12:09:58;0.80;;;0.80;;
6977;SDS011;3529;53.244;10.414;2022-09-12T12:12:24;0.55;;;0.55;;
6977;SDS011;3529;53.244;10.414;2022-09-12T12:14:53;0.90;;;0.90;;
6977;SDS011;3529;53.244;10.414;2022-09-12T12:17:23;0.73;;;0.73;;
6977;SDS011;3529;53.244;10.414;2022-09-12T12:20:01;1.00;;;1.00;;
6977;SDS011;3529;53.244;10.414;2022-09-12T12:22:28;0.88;;;0.88;;
6977;SDS011;3529;53.244;10.414;2022-09-12T12:25:03;1.05;;;1.02;;
6977;SDS011;3529;53.244;10.414;2022-09-12T12:38:32;0.85;;;0.85;;
6977;SDS011;3529;53.244;10.414;2022-09-12T12:43:47;1.20;;;1.10;;
6977;SDS011;3529;53.244;10.414;2022-09-12T12:46:17;1.42;;;1.35;;
6977;SDS011;3529;53.244;10.414;2022-09-12T12:51:22;0.80;;;0.80;;
6977;SDS011;3529;53.244;10.414;2022-09-12T12:53:56;0.98;;;0.98;;
6977;SDS011;3529;53.244;10.414;2022-09-12T12:59:14;1.10;;;1.10;;
6977;SDS011;3529;53.244;10.414;2022-09-12T13:01:48;1.20;;;1.20;;
6977;SDS011;3529;53.244;10.414;2022-09-12T13:04:17;0.90;;;0.90;;
6977;SDS011;3529;53.244;10.414;2022-09-12T13:06:53;0.73;;;0.73;;
6977;SDS011;3529;53.244;10.414;2022-09-12T13:11:55;0.80;;;0.80;;
6977;SDS011;3529;53.244;10.414;2022-09-12T13:20:21;0.80;;;0.80;;
6977;SDS011;3529;53.244;10.414;2022-09-12T13:22:50;0.80;;;0.80;;
6977;SDS011;3529;53.244;10.414;2022-09-12T13:25:20;0.80;;;0.80;;
6977;SDS011;3529;53.244;10.414;2022-09-12T13:30:34;0.65;;;0.65;;
6977;SDS011;3529;53.244;10.414;2022-09-12T13:33:08;0.90;;;0.90;;
6977;SDS011;3529;53.244;10.414;2022-09-12T13:38:34;0.98;;;0.98;;
6977;SDS011;3529;53.244;10.414;2022-09-12T13:44:15;0.98;;;0.98;;
6977;SDS011;3529;53.244;10.414;2022-09-12T13:46:44;0.80;;;0.80;;
6977;SDS011;3529;53.244;10.414;2022-09-12T13:54:43;0.80;;;0.80;;
6977;SDS011;3529;53.244;10.414;2022-09-12T13:59:57;1.02;;;1.02;;
6977;SDS011;3529;53.244;10.414;2022-09-12T14:02:26;1.08;;;1.08;;
6977;SDS011;3529;53.244;10.414;2022-09-12T14:04:53;0.98;;;0.98;;
6977;SDS011;3529;53.244;10.414;2022-09-12T14:07:33;0.90;;;0.90;;
6977;SDS011;3529;53.244;10.414;2022-09-12T14:10:16;0.90;;;0.90;;
6977;SDS011;3529;53.244;10.414;2022-09-12T14:13:12;0.85;;;0.85;;
6977;SDS011;3529;53.244;10.414;2022-09-12T14:15:46;1.17;;;1.13;;
6977;SDS011;3529;53.244;10.414;2022-09-12T14:18:21;1.10;;;1.10;;
6977;SDS011;3529;53.244;10.414;2022-09-12T14:20:52;0.90;;;0.90;;
6977;SDS011;3529;53.244;10.414;2022-09-12T14:23:31;0.98;;;0.98;;
6977;SDS011;3529;53.244;10.414;2022-09-12T14:25:57;0.80;;;0.80;;
6977;SDS011;3529;53.244;10.414;2022-09-12T14:28:26;0.90;;;0.90;;
6977;SDS011;3529;53.244;10.414;2022-09-12T14:31:04;2.17;;;1.20;;
6977;SDS011;3529;53.244;10.414;2022-09-12T14:33:46;0.80;;;0.80;;
6977;SDS011;3529;53.244;10.414;2022-09-12T14:36:29;1.20;;;1.15;;
6977;SDS011;3529;53.244;10.414;2022-09-12T14:39:03;1.95;;;1.00;;
6977;SDS011;3529;53.244;10.414;2022-09-12T14:41:35;0.80;;;0.80;;
6977;SDS011;3529;53.244;10.414;2022-09-12T14:44:04;1.00;;;1.00;;
6977;SDS011;3529;53.244;10.414;2022-09-12T14:46:38;0.93;;;0.93;;
6977;SDS011;3529;53.244;10.414;2022-09-12T14:49:51;1.10;;;1.10;;
6977;SDS011;3529;53.244;10.414;2022-09-12T14:51:57;1.00;;;1.00;;
6977;SDS011;3529;53.244;10.414;2022-09-12T14:57:01;1.60;;;1.20;;
6977;SDS011;3529;53.244;10.414;2022-09-12T14:59:30;0.90;;;0.90;;
6977;SDS011;3529;53.244;10.414;2022-09-12T15:10:30;0.80;;;0.80;;
6977;SDS011;3529;53.244;10.414;2022-09-12T15:15:41;1.17;;;1.17;;
6977;SDS011;3529;53.244;10.414;2022-09-12T15:18:08;0.90;;;0.90;;
6977;SDS011;3529;53.244;10.414;2022-09-12T15:20:37;0.80;;;0.80;;
6977;SDS011;3529;53.244;10.414;2022-09-12T15:23:05;1.00;;;1.00;;
6977;SDS011;3529;53.244;10.414;2022-09-12T15:25:36;1.05;;;1.05;;
6977;SDS011;3529;53.244;10.414;2022-09-12T15:28:04;1.10;;;1.10;;
6977;SDS011;3529;53.244;10.414;2022-09-12T15:30:39;1.30;;;1.30;;
6977;SDS011;3529;53.244;10.414;2022-09-12T15:33:04;1.15;;;1.15;;
6977;SDS011;3529;53.244;10.414;2022-09-12T15:35:30;1.35;;;1.25;;
6977;SDS011;3529;53.244;10.414;2022-09-12T15:37:57;1.50;;;1.40;;
6977;SDS011;3529;53.244;10.414;2022-09-12T15:40:23;1.25;;;1.23;;
6977;SDS011;3529;53.244;10.414;2022-09-12T15:42:50;1.10;;;1.10;;
6977;SDS011;3529;53.244;10.414;2022-09-12T15:45:26;1.42;;;1.42;;
6977;SDS011;3529;53.244;10.414;2022-09-12T15:47:54;1.48;;;1.38;;
6977;SDS011;3529;53.244;10.414;2022-09-12T15:50:20;1.10;;;1.10;;
6977;SDS011;3529;53.244;10.414;2022-09-12T15:52:46;1.15;;;1.15;;
6977;SDS011;3529;53.244;10.414;2022-09-12T15:55:14;3.00;;;1.55;;
6977;SDS011;3529;53.244;10.414;2022-09-12T15:57:51;1.60;;;1.50;;
6977;SDS011;3529;53.244;10.414;2022-09-12T16:00:17;1.65;;;1.55;;
6977;SDS011;3529;53.244;10.414;2022-09-12T16:02:46;1.23;;;1.20;;
6977;SDS011;3529;53.244;10.414;2022-09-12T16:05:14;1.70;;;1.17;;
6977;SDS011;3529;53.244;10.414;2022-09-12T16:07:50;1.10;;;1.10;;
6977;SDS011;3529;53.244;10.414;2022-09-12T16:10:19;1.20;;;1.20;;
6977;SDS011;3529;53.244;10.414;2022-09-12T16:12:46;1.10;;;1.10;;
6977;SDS011;3529;53.244;10.414;2022-09-12T16:15:13;1.25;;;1.25;;
6977;SDS011;3529;53.244;10.414;2022-09-12T16:17:43;1.30;;;1.20;;
6977;SDS011;3529;53.244;10.414;2022-09-12T16:20:09;1.33;;;1.33;;
6977;SDS011;3529;53.244;10.414;2022-09-12T16:22:36;1.30;;;1.30;;
6977;SDS011;3529;53.244;10.414;2022-09-12T16:25:02;1.20;;;1.10;;
6977;SDS011;3529;53.244;10.414;2022-09-12T16:27:28;1.23;;;1.23;;
6977;SDS011;3529;53.244;10.414;2022-09-12T16:29:54;1.27;;;1.20;;
6977;SDS011;3529;53.244;10.414;2022-09-12T16:32:19;1.10;;;1.10;;
6977;SDS011;3529;53.244;10.414;2022-09-12T16:34:45;1.63;;;1.52;;
6977;SDS011;3529;53.244;10.414;2022-09-12T16:37:10;1.10;;;1.10;;
6977;SDS011;3529;53.244;10.414;2022-09-12T16:39:36;1.17;;;1.17;;
6977;SDS011;3529;53.244;10.414;2022-09-12T16:42:01;1.63;;;1.52;;
6977;SDS011;3529;53.244;10.414;2022-09-12T16:44:27;1.15;;;1.15;;
6977;SDS011;3529;53.244;10.414;2022-09-12T16:46:53;1.00;;;1.00;;
6977;SDS011;3529;53.244;10.414;2022-09-12T16:49:19;1.00;;;1.00;;
6977;SDS011;3529;53.244;10.414;2022-09-12T16:51:45;1.35;;;1.33;;
6977;SDS011;3529;53.244;10.414;2022-09-12T16:54:14;1.10;;;1.10;;
6977;SDS011;3529;53.244;10.414;2022-09-12T16:56:41;1.20;;;1.20;;
6977;SDS011;3529;53.244;10.414;2022-09-12T16:59:08;1.27;;;1.27;;
6977;SDS011;3529;53.244;10.414;2022-09-12T17:01:36;1.17;;;1.17;;
6977;SDS011;3529;53.244;10.414;2022-09-12T17:04:02;1.00;;;1.00;;
6977;SDS011;3529;53.244;10.414;2022-09-12T17:06:28;1.33;;;1.30;;
6977;SDS011;3529;53.244;10.414;2022-09-12T17:08:54;1.10;;;1.10;;
6977;SDS011;3529;53.244;10.414;2022-09-12T17:11:31;1.25;;;1.25;;
6977;SDS011;3529;53.244;10.414;2022-09-12T17:14:02;1.30;;;1.30;;
6977;SDS011;3529;53.244;10.414;2022-09-12T17:16:30;1.50;;;1.40;;
6977;SDS011;3529;53.244;10.414;2022-09-12T17:18:56;0.93;;;0.93;;
6977;SDS011;3529;53.244;10.414;2022-09-12T17:21:22;1.38;;;1.30;;
6977;SDS011;3529;53.244;10.414;2022-09-12T17:23:48;1.42;;;1.40;;
6977;SDS011;3529;53.244;10.414;2022-09-12T17:26:14;2.33;;;1.40;;
6977;SDS011;3529;53.244;10.414;2022-09-12T17:28:40;1.10;;;1.10;;
6977;SDS011;3529;53.244;10.414;2022-09-12T17:31:07;2.35;;;2.17;;
6977;SDS011;3529;53.244;10.414;2022-09-12T17:33:35;1.40;;;1.30;;
6977;SDS011;3529;53.244;10.414;2022-09-12T17:36:05;1.50;;;1.40;;
6977;SDS011;3529;53.244;10.414;2022-09-12T17:38:36;1.52;;;1.42;;
6977;SDS011;3529;53.244;10.414;2022-09-12T17:41:16;1.23;;;1.23;;
6977;SDS011;3529;53.244;10.414;2022-09-12T17:43:44;1.40;;;1.40;;
6977;SDS011;3529;53.244;10.414;2022-09-12T17:46:11;1.55;;;1.45;;
6977;SDS011;3529;53.244;10.414;2022-09-12T17:48:37;1.48;;;1.48;;
6977;SDS011;3529;53.244;10.414;2022-09-12T17:51:12;1.08;;;1.08;;
6977;SDS011;3529;53.244;10.414;2022-09-12T17:53:39;1.30;;;1.30;;
6977;SDS011;3529;53.244;10.414;2022-09-12T17:56:06;1.42;;;1.30;;
6977;SDS011;3529;53.244;10.414;2022-09-12T17:58:32;2.50;;;1.60;;
6977;SDS011;3529;53.244;10.414;2022-09-12T18:03:46;1.25;;;1.25;;
6977;SDS011;3529;53.244;10.414;2022-09-12T18:06:12;1.30;;;1.30;;
6977;SDS011;3529;53.244;10.414;2022-09-12T18:08:39;1.67;;;1.58;;
6977;SDS011;3529;53.244;10.414;2022-09-12T18:11:05;1.45;;;1.40;;